Wetterdaten: aktuell Donnerstag, 09.04.2020 13:45
Datum Zeit Temp. A. Temp. A. min Temp. A. max Feuchte A. Luftdruck Regen Wind Richtung Richtung Sonnenschein UV Solar Windben
09.04.2020 13:45 20,7 C 20,4 C 20,7 C 44 % 1025,6 hPa 0,0 l/m 12,9 km/h (3 Bft) NO 45 5 min 4,1 UV-I 663 W/m 20,9 km/h (4 Bft)
09.04.2020 13:40 20,4 C 20,4 C 20,4 C 46 % 1025,7 hPa 0,0 l/m 8,0 km/h (2 Bft) N-NO 22 5 min 4,1 UV-I 663 W/m 16,1 km/h (3 Bft)
09.04.2020 13:35 20,4 C 20,3 C 20,4 C 46 % 1025,8 hPa 0,0 l/m 9,7 km/h (2 Bft) N-NO 22 5 min 4,1 UV-I 661 W/m 19,3 km/h (3 Bft)
09.04.2020 13:30 20,4 C 20,4 C 20,4 C 45 % 1025,8 hPa 0,0 l/m 11,3 km/h (2 Bft) N-NO 22 5 min 4,2 UV-I 664 W/m 17,7 km/h (3 Bft)
09.04.2020 13:25 20,4 C 20,2 C 20,4 C 45 % 1025,9 hPa 0,0 l/m 11,3 km/h (2 Bft) NO 45 5 min 4,2 UV-I 664 W/m 20,9 km/h (4 Bft)
09.04.2020 13:20 20,2 C 20,2 C 20,2 C 47 % 1025,8 hPa 0,0 l/m 6,4 km/h (2 Bft) NO 45 5 min 4,2 UV-I 663 W/m 14,5 km/h (3 Bft)
09.04.2020 13:15 20,2 C 20,2 C 20,3 C 46 % 1025,8 hPa 0,0 l/m 11,3 km/h (2 Bft) N-NO 22 5 min 4,2 UV-I 664 W/m 17,7 km/h (3 Bft)
09.04.2020 13:10 20,3 C 20,2 C 20,3 C 46 % 1025,8 hPa 0,0 l/m 11,3 km/h (2 Bft) N-NO 22 5 min 4,2 UV-I 663 W/m 19,3 km/h (3 Bft)
09.04.2020 13:05 20,2 C 19,6 C 20,2 C 47 % 1025,7 hPa 0,0 l/m 8,0 km/h (2 Bft) NO 45 5 min 4,1 UV-I 650 W/m 14,5 km/h (3 Bft)
09.04.2020 13:00 19,6 C 19,4 C 19,6 C 52 % 1025,8 hPa 0,0 l/m 11,3 km/h (2 Bft) N-NO 22 5 min 4,0 UV-I 649 W/m 19,3 km/h (3 Bft)
09.04.2020 12:55 19,5 C 19,5 C 19,7 C 48 % 1025,8 hPa 0,0 l/m 12,9 km/h (3 Bft) N-NO 22 5 min 4,0 UV-I 642 W/m 22,5 km/h (4 Bft)
09.04.2020 12:50 19,6 C 19,3 C 19,6 C 50 % 1025,8 hPa 0,0 l/m 9,7 km/h (2 Bft) NO 45 5 min 4,1 UV-I 647 W/m 22,5 km/h (4 Bft)
09.04.2020 12:45 19,3 C 19,1 C 19,3 C 50 % 1025,8 hPa 0,0 l/m 8,0 km/h (2 Bft) NO 45 5 min 4,0 UV-I 642 W/m 17,7 km/h (3 Bft)
09.04.2020 12:40 19,1 C 18,8 C 19,1 C 52 % 1025,8 hPa 0,0 l/m 12,9 km/h (3 Bft) N 360 5 min 4,0 UV-I 640 W/m 20,9 km/h (4 Bft)
09.04.2020 12:35 18,8 C 18,8 C 18,8 C 51 % 1025,8 hPa 0,0 l/m 11,3 km/h (2 Bft) NO 45 5 min 4,1 UV-I 710 W/m 19,3 km/h (3 Bft)
09.04.2020 12:30 18,8 C 18,8 C 19,1 C 52 % 1025,7 hPa 0,0 l/m 11,3 km/h (2 Bft) NO 45 5 min 3,8 UV-I 691 W/m 19,3 km/h (3 Bft)
09.04.2020 12:25 19,1 C 18,8 C 19,1 C 50 % 1025,7 hPa 0,0 l/m 9,7 km/h (2 Bft) NO 45 5 min 3,7 UV-I 610 W/m 16,1 km/h (3 Bft)
09.04.2020 12:20 18,8 C 18,8 C 18,9 C 54 % 1025,7 hPa 0,0 l/m 8,0 km/h (2 Bft) NO 45 5 min 3,3 UV-I 490 W/m 17,7 km/h (3 Bft)
09.04.2020 12:15 18,8 C 18,8 C 18,9 C 52 % 1025,7 hPa 0,0 l/m 8,0 km/h (2 Bft) N-NO 22 5 min 3,5 UV-I 601 W/m 14,5 km/h (3 Bft)
09.04.2020 12:10 18,8 C 18,6 C 18,8 C 51 % 1025,8 hPa 0,0 l/m 9,7 km/h (2 Bft) NO 45 5 min 4,2 UV-I 643 W/m 16,1 km/h (3 Bft)
09.04.2020 12:05 18,7 C 18,6 C 18,7 C 51 % 1025,9 hPa 0,0 l/m 12,9 km/h (3 Bft) NO 45 5 min 3,9 UV-I 552 W/m 17,7 km/h (3 Bft)
09.04.2020 12:00 18,6 C 18,6 C 18,7 C 51 % 1025,8 hPa 0,0 l/m 8,0 km/h (2 Bft) NO 45 5 min 3,3 UV-I 554 W/m 17,7 km/h (3 Bft)
09.04.2020 11:55 18,6 C 18,6 C 18,7 C 52 % 1025,8 hPa 0,0 l/m 11,3 km/h (2 Bft) N-NO 22 5 min 3,4 UV-I 608 W/m 17,7 km/h (3 Bft)
09.04.2020 11:50 18,6 C 18,3 C 18,6 C 53 % 1025,8 hPa 0,0 l/m 9,7 km/h (2 Bft) N-NO 22 5 min 3,6 UV-I 587 W/m 17,7 km/h (3 Bft)
09.04.2020 11:45 18,3 C 18,1 C 18,3 C 54 % 1025,8 hPa 0,0 l/m 9,7 km/h (2 Bft) NO 45 5 min 3,1 UV-I 529 W/m 19,3 km/h (3 Bft)
09.04.2020 11:40 18,0 C 17,9 C 18,0 C 54 % 1025,8 hPa 0,0 l/m 11,3 km/h (2 Bft) NO 45 5 min 2,9 UV-I 503 W/m 19,3 km/h (3 Bft)
09.04.2020 11:35 17,9 C 17,8 C 17,9 C 55 % 1025,8 hPa 0,0 l/m 6,4 km/h (2 Bft) NO 45 5 min 2,7 UV-I 438 W/m 16,1 km/h (3 Bft)
09.04.2020 11:30 17,8 C 17,8 C 17,8 C 55 % 1025,7 hPa 0,0 l/m 8,0 km/h (2 Bft) NO 45 5 min 2,7 UV-I 432 W/m 17,7 km/h (3 Bft)
09.04.2020 11:25 17,8 C 17,6 C 17,8 C 55 % 1025,8 hPa 0,0 l/m 9,7 km/h (2 Bft) N-NO 22 5 min 2,5 UV-I 394 W/m 16,1 km/h (3 Bft)
09.04.2020 11:20 17,6 C 17,4 C 17,6 C 55 % 1025,8 hPa 0,0 l/m 8,0 km/h (2 Bft) NO 45 5 min 2,3 UV-I 371 W/m 16,1 km/h (3 Bft)
09.04.2020 11:15 17,4 C 17,4 C 17,4 C 56 % 1025,7 hPa 0,0 l/m 11,3 km/h (2 Bft) NO 45 5 min 2,2 UV-I 341 W/m 17,7 km/h (3 Bft)
09.04.2020 11:10 17,4 C 17,3 C 17,4 C 56 % 1025,7 hPa 0,0 l/m 8,0 km/h (2 Bft) N-NO 22 5 min 2,1 UV-I 334 W/m 17,7 km/h (3 Bft)
09.04.2020 11:05 17,3 C 17,2 C 17,3 C 57 % 1025,7 hPa 0,0 l/m 9,7 km/h (2 Bft) N-NO 22 5 min 2,1 UV-I 352 W/m 16,1 km/h (3 Bft)
09.04.2020 11:00 17,2 C 17,2 C 17,2 C 58 % 1025,7 hPa 0,0 l/m 8,0 km/h (2 Bft) N-NO 22 5 min 2,1 UV-I 345 W/m 16,1 km/h (3 Bft)
09.04.2020 10:55 17,2 C 17,2 C 17,2 C 57 % 1025,6 hPa 0,0 l/m 8,0 km/h (2 Bft) N-NO 22 5 min 2,0 UV-I 320 W/m 17,7 km/h (3 Bft)
09.04.2020 10:50 17,2 C 17,2 C 17,2 C 58 % 1025,6 hPa 0,0 l/m 9,7 km/h (2 Bft) N-NO 22 0 min 1,9 UV-I 306 W/m 16,1 km/h (3 Bft)
09.04.2020 10:45 17,2 C 17,2 C 17,2 C 57 % 1025,6 hPa 0,0 l/m 8,0 km/h (2 Bft) N-NO 22 0 min 1,8 UV-I 301 W/m 14,5 km/h (3 Bft)
09.04.2020 10:40 17,2 C 17,1 C 17,2 C 57 % 1025,5 hPa 0,0 l/m 8,0 km/h (2 Bft) NO 45 0 min 1,8 UV-I 295 W/m 14,5 km/h (3 Bft)
09.04.2020 10:35 17,1 C 16,9 C 17,1 C 57 % 1025,5 hPa 0,0 l/m 6,4 km/h (2 Bft) NO 45 5 min 1,9 UV-I 357 W/m 14,5 km/h (3 Bft)
09.04.2020 10:30 16,9 C 16,7 C 16,9 C 55 % 1025,5 hPa 0,0 l/m 9,7 km/h (2 Bft) N-NO 22 5 min 2,5 UV-I 629 W/m 16,1 km/h (3 Bft)
09.04.2020 10:25 16,7 C 16,3 C 16,7 C 56 % 1025,5 hPa 0,0 l/m 8,0 km/h (2 Bft) N-NO 22 5 min 2,5 UV-I 612 W/m 16,1 km/h (3 Bft)
09.04.2020 10:20 16,3 C 16,1 C 16,3 C 57 % 1025,4 hPa 0,0 l/m 8,0 km/h (2 Bft) N-NO 22 5 min 2,3 UV-I 531 W/m 14,5 km/h (3 Bft)
09.04.2020 10:15 16,1 C 15,9 C 16,1 C 58 % 1025,4 hPa 0,0 l/m 6,4 km/h (2 Bft) NO 45 5 min 2,1 UV-I 448 W/m 11,3 km/h (2 Bft)
09.04.2020 10:10 15,9 C 15,8 C 15,9 C 58 % 1025,3 hPa 0,0 l/m 8,0 km/h (2 Bft) N-NO 22 5 min 1,9 UV-I 396 W/m 12,9 km/h (3 Bft)
09.04.2020 10:05 15,8 C 15,8 C 15,8 C 59 % 1025,3 hPa 0,0 l/m 8,0 km/h (2 Bft) N-NO 22 5 min 1,8 UV-I 371 W/m 14,5 km/h (3 Bft)
09.04.2020 10:00 15,7 C 15,7 C 15,8 C 60 % 1025,3 hPa 0,0 l/m 6,4 km/h (2 Bft) N-NO 22 5 min 1,7 UV-I 352 W/m 12,9 km/h (3 Bft)
09.04.2020 09:55 15,6 C 15,5 C 15,6 C 60 % 1025,2 hPa 0,0 l/m 6,4 km/h (2 Bft) N-NO 22 5 min 1,6 UV-I 346 W/m 12,9 km/h (3 Bft)
09.04.2020 09:50 15,5 C 15,4 C 15,5 C 60 % 1025,2 hPa 0,0 l/m 8,0 km/h (2 Bft) N-NO 22 5 min 1,6 UV-I 330 W/m 14,5 km/h (3 Bft)
09.04.2020 09:45 15,4 C 15,3 C 15,4 C 61 % 1025,2 hPa 0,0 l/m 6,4 km/h (2 Bft) N-NO 22 5 min 1,5 UV-I 316 W/m 12,9 km/h (3 Bft)
09.04.2020 09:40 15,3 C 15,1 C 15,3 C 63 % 1025,1 hPa 0,0 l/m 4,8 km/h (1 Bft) N-NO 22 5 min 1,4 UV-I 302 W/m 8,0 km/h (2 Bft)
09.04.2020 09:35 15,1 C 14,9 C 15,1 C 63 % 1025,1 hPa 0,0 l/m 4,8 km/h (1 Bft) N-NO 22 5 min 1,3 UV-I 292 W/m 11,3 km/h (2 Bft)
09.04.2020 09:30 14,9 C 14,8 C 14,9 C 64 % 1025,0 hPa 0,0 l/m 6,4 km/h (2 Bft) N-NO 22 5 min 1,3 UV-I 281 W/m 11,3 km/h (2 Bft)
09.04.2020 09:25 14,8 C 14,6 C 14,8 C 65 % 1024,9 hPa 0,0 l/m 3,2 km/h (1 Bft) N-NO 22 5 min 1,2 UV-I 272 W/m 8,0 km/h (2 Bft)
09.04.2020 09:20 14,6 C 14,4 C 14,6 C 66 % 1024,9 hPa 0,0 l/m 1,6 km/h (1 Bft) NO 45 5 min 1,1 UV-I 260 W/m 4,8 km/h (1 Bft)
09.04.2020 09:15 14,4 C 14,1 C 14,4 C 67 % 1024,9 hPa 0,0 l/m 1,6 km/h (1 Bft) O 90 5 min 1,1 UV-I 246 W/m 4,8 km/h (1 Bft)
09.04.2020 09:10 14,1 C 13,7 C 14,1 C 68 % 1024,8 hPa 0,0 l/m 3,2 km/h (1 Bft) O 90 5 min 1,0 UV-I 232 W/m 6,4 km/h (2 Bft)
09.04.2020 09:05 13,7 C 13,3 C 13,7 C 68 % 1024,9 hPa 0,0 l/m 4,8 km/h (1 Bft) NO 45 5 min 0,9 UV-I 218 W/m 9,7 km/h (2 Bft)
09.04.2020 09:00 13,3 C 12,9 C 13,3 C 70 % 1024,8 hPa 0,0 l/m 4,8 km/h (1 Bft) O-NO 67 5 min 0,8 UV-I 202 W/m 8,0 km/h (2 Bft)
09.04.2020 08:55 12,9 C 12,6 C 12,9 C 73 % 1024,9 hPa 0,0 l/m 3,2 km/h (1 Bft) NO 45 5 min 0,8 UV-I 190 W/m 9,7 km/h (2 Bft)
09.04.2020 08:50 12,6 C 12,3 C 12,6 C 76 % 1024,9 hPa 0,0 l/m 3,2 km/h (1 Bft) N 360 5 min 0,7 UV-I 179 W/m 4,8 km/h (1 Bft)
09.04.2020 08:45 12,3 C 12,1 C 12,3 C 77 % 1024,8 hPa 0,0 l/m 1,6 km/h (1 Bft) N-NO 22 5 min 0,7 UV-I 167 W/m 6,4 km/h (2 Bft)
09.04.2020 08:40 12,1 C 11,8 C 12,1 C 77 % 1024,8 hPa 0,0 l/m 0,0 km/h (0 Bft) N-NO 22 0 min 0,6 UV-I 151 W/m 4,8 km/h (1 Bft)
09.04.2020 08:35 11,8 C 11,7 C 11,8 C 78 % 1024,9 hPa 0,0 l/m 0,0 km/h (0 Bft) N-NO 22 0 min 0,5 UV-I 123 W/m 3,2 km/h (1 Bft)
09.04.2020 08:30 11,7 C 11,4 C 11,7 C 79 % 1024,8 hPa 0,0 l/m 1,6 km/h (1 Bft) N-NO 22 0 min 0,5 UV-I 81 W/m 4,8 km/h (1 Bft)
09.04.2020 08:25 11,4 C 11,3 C 11,4 C 79 % 1024,8 hPa 0,0 l/m 1,6 km/h (1 Bft) N 360 0 min 0,5 UV-I 79 W/m 4,8 km/h (1 Bft)
09.04.2020 08:20 11,3 C 11,2 C 11,3 C 79 % 1024,8 hPa 0,0 l/m 1,6 km/h (1 Bft) N 360 0 min 0,0 UV-I 58 W/m 4,8 km/h (1 Bft)
09.04.2020 08:15 11,3 C 11,2 C 11,3 C 79 % 1024,7 hPa 0,0 l/m 1,6 km/h (1 Bft) N 360 0 min 0,0 UV-I 60 W/m 4,8 km/h (1 Bft)
09.04.2020 08:10 11,2 C 11,1 C 11,2 C 79 % 1024,7 hPa 0,0 l/m 0,0 km/h (0 Bft) N-NO 22 0 min 0,0 UV-I 58 W/m 4,8 km/h (1 Bft)
09.04.2020 08:05 11,1 C 10,9 C 11,1 C 80 % 1024,7 hPa 0,0 l/m 1,6 km/h (1 Bft) N-NO 22 0 min 0,0 UV-I 56 W/m 4,8 km/h (1 Bft)
09.04.2020 08:00 10,9 C 10,8 C 10,9 C 80 % 1024,6 hPa 0,0 l/m 1,6 km/h (1 Bft) N-NO 22 0 min 0,0 UV-I 53 W/m 3,2 km/h (1 Bft)
09.04.2020 07:55 10,8 C 10,7 C 10,8 C 81 % 1024,6 hPa 0,0 l/m 1,6 km/h (1 Bft) N-NO 22 0 min 0,0 UV-I 47 W/m 4,8 km/h (1 Bft)
09.04.2020 07:50 10,7 C 10,6 C 10,7 C 81 % 1024,5 hPa 0,0 l/m 3,2 km/h (1 Bft) N-NO 22 0 min 0,0 UV-I 39 W/m 4,8 km/h (1 Bft)
09.04.2020 07:45 10,7 C 10,6 C 10,7 C 81 % 1024,5 hPa 0,0 l/m 3,2 km/h (1 Bft) N 360 0 min 0,0 UV-I 33 W/m 6,4 km/h (2 Bft)
09.04.2020 07:40 10,6 C 10,6 C 10,7 C 81 % 1024,5 hPa 0,0 l/m 4,8 km/h (1 Bft) N 360 0 min 0,0 UV-I 33 W/m 6,4 km/h (2 Bft)
09.04.2020 07:35 10,7 C 10,7 C 10,7 C 81 % 1024,4 hPa 0,0 l/m 3,2 km/h (1 Bft) N-NO 22 0 min 0,0 UV-I 26 W/m 6,4 km/h (2 Bft)
09.04.2020 07:30 10,7 C 10,7 C 10,7 C 81 % 1024,3 hPa 0,0 l/m 1,6 km/h (1 Bft) N-NO 22 0 min 0,0 UV-I 25 W/m 4,8 km/h (1 Bft)
09.04.2020 07:25 10,7 C 10,7 C 10,8 C 81 % 1024,3 hPa 0,0 l/m 0,0 km/h (0 Bft) N-NO 22 0 min 0,0 UV-I 21 W/m 1,6 km/h (1 Bft)
09.04.2020 07:20 10,7 C 10,7 C 10,8 C 81 % 1024,3 hPa 0,0 l/m 0,0 km/h (0 Bft) N-NO 22 0 min 0,0 UV-I 18 W/m 3,2 km/h (1 Bft)
09.04.2020 07:15 10,7 C 10,7 C 10,8 C 81 % 1024,3 hPa 0,0 l/m 1,6 km/h (1 Bft) N-NO 22 0 min 0,0 UV-I 14 W/m 4,8 km/h (1 Bft)
09.04.2020 07:10 10,8 C 10,8 C 10,8 C 80 % 1024,2 hPa 0,0 l/m 3,2 km/h (1 Bft) N-NO 22 0 min 0,0 UV-I 12 W/m 6,4 km/h (2 Bft)
09.04.2020 07:05 10,8 C 10,8 C 10,9 C 80 % 1024,2 hPa 0,0 l/m 3,2 km/h (1 Bft) N-NO 22 0 min 0,0 UV-I 9 W/m 6,4 km/h (2 Bft)
09.04.2020 07:00 10,9 C 10,9 C 11,1 C 80 % 1024,1 hPa 0,0 l/m 4,8 km/h (1 Bft) N 360 0 min 0,0 UV-I 7 W/m 6,4 km/h (2 Bft)
09.04.2020 06:55 11,1 C 11,1 C 11,2 C 79 % 1024,0 hPa 0,0 l/m 4,8 km/h (1 Bft) N 360 0 min 0,0 UV-I 0 W/m 8,0 km/h (2 Bft)
09.04.2020 06:50 11,2 C 11,2 C 11,3 C 79 % 1023,9 hPa 0,0 l/m 4,8 km/h (1 Bft) N-NO 22 0 min 0,0 UV-I 0 W/m 8,0 km/h (2 Bft)
09.04.2020 06:45 11,2 C 11,2 C 11,3 C 79 % 1023,8 hPa 0,0 l/m 4,8 km/h (1 Bft) NO 45 0 min 0,0 UV-I 0 W/m 6,4 km/h (2 Bft)
09.04.2020 06:40 11,2 C 11,2 C 11,2 C 79 % 1023,9 hPa 0,0 l/m 4,8 km/h (1 Bft) N-NO 22 0 min 0,0 UV-I 0 W/m 8,0 km/h (2 Bft)
09.04.2020 06:35 11,2 C 11,2 C 11,3 C 79 % 1023,8 hPa 0,0 l/m 6,4 km/h (2 Bft) N-NO 22 0 min 0,0 UV-I 0 W/m 8,0 km/h (2 Bft)
09.04.2020 06:30 11,3 C 11,2 C 11,4 C 79 % 1023,8 hPa 0,0 l/m 4,8 km/h (1 Bft) N-NO 22 0 min 0,0 UV-I 0 W/m 8,0 km/h (2 Bft)
09.04.2020 06:25 11,4 C 11,4 C 11,4 C 78 % 1023,7 hPa 0,0 l/m 4,8 km/h (1 Bft) N-NO 22 0 min 0,0 UV-I 0 W/m 8,0 km/h (2 Bft)
09.04.2020 06:20 11,4 C 11,4 C 11,6 C 78 % 1023,6 hPa 0,0 l/m 4,8 km/h (1 Bft) N-NO 22 0 min 0,0 UV-I 0 W/m 6,4 km/h (2 Bft)
09.04.2020 06:15 11,6 C 11,6 C 11,6 C 78 % 1023,7 hPa 0,0 l/m 4,8 km/h (1 Bft) N-NO 22 0 min 0,0 UV-I 0 W/m 6,4 km/h (2 Bft)
09.04.2020 06:10 11,6 C 11,5 C 11,6 C 78 % 1023,6 hPa 0,0 l/m 4,8 km/h (1 Bft) N-NO 22 0 min 0,0 UV-I 0 W/m 8,0 km/h (2 Bft)
09.04.2020 06:05 11,6 C 11,5 C 11,6 C 78 % 1023,6 hPa 0,0 l/m 3,2 km/h (1 Bft) NO 45 0 min 0,0 UV-I 0 W/m 8,0 km/h (2 Bft)
09.04.2020 06:00 11,6 C 11,6 C 11,7 C 78 % 1023,6 hPa 0,0 l/m 3,2 km/h (1 Bft) NO 45 0 min 0,0 UV-I 0 W/m 6,4 km/h (2 Bft)
09.04.2020 05:55 11,7 C 11,7 C 11,8 C 77 % 1023,7 hPa 0,0 l/m 4,8 km/h (1 Bft) N-NO 22 0 min 0,0 UV-I 0 W/m 6,4 km/h (2 Bft)
09.04.2020 05:50 11,8 C 11,8 C 11,8 C 77 % 1023,5 hPa 0,0 l/m 4,8 km/h (1 Bft) NO 45 0 min 0,0 UV-I 0 W/m 6,4 km/h (2 Bft)
09.04.2020 05:45 11,8 C 11,8 C 11,8 C 77 % 1023,5 hPa 0,0 l/m 3,2 km/h (1 Bft) NO 45 0 min 0,0 UV-I 0 W/m 4,8 km/h (1 Bft)
09.04.2020 05:40 11,8 C 11,8 C 11,9 C 77 % 1023,5 hPa 0,0 l/m 4,8 km/h (1 Bft) N-NO 22 0 min 0,0 UV-I 0 W/m 8,0 km/h (2 Bft)
09.04.2020 05:35 11,9 C 11,9 C 12,0 C 77 % 1023,6 hPa 0,0 l/m 4,8 km/h (1 Bft) N-NO 22 0 min 0,0 UV-I 0 W/m 8,0 km/h (2 Bft)
09.04.2020 05:30 11,9 C 11,9 C 12,0 C 77 % 1023,5 hPa 0,0 l/m 4,8 km/h (1 Bft) N-NO 22 0 min 0,0 UV-I 0 W/m 8,0 km/h (2 Bft)
09.04.2020 05:25 12,0 C 12,0 C 12,1 C 76 % 1023,5 hPa 0,0 l/m 3,2 km/h (1 Bft) N-NO 22 0 min 0,0 UV-I 0 W/m 6,4 km/h (2 Bft)
09.04.2020 05:20 12,1 C 12,1 C 12,1 C 76 % 1023,4 hPa 0,0 l/m 4,8 km/h (1 Bft) N-NO 22 0 min 0,0 UV-I 0 W/m 6,4 km/h (2 Bft)
09.04.2020 05:15 12,1 C 12,1 C 12,2 C 76 % 1023,4 hPa 0,0 l/m 4,8 km/h (1 Bft) N-NO 22 0 min 0,0 UV-I 0 W/m 8,0 km/h (2 Bft)
09.04.2020 05:10 12,2 C 12,2 C 12,2 C 76 % 1023,5 hPa 0,0 l/m 4,8 km/h (1 Bft) N-NO 22 0 min 0,0 UV-I 0 W/m 8,0 km/h (2 Bft)
09.04.2020 05:05 12,2 C 12,2 C 12,2 C 75 % 1023,4 hPa 0,0 l/m 6,4 km/h (2 Bft) N-NO 22 0 min 0,0 UV-I 0 W/m 9,7 km/h (2 Bft)
09.04.2020 05:00 12,2 C 12,2 C 12,2 C 75 % 1023,4 hPa 0,0 l/m 6,4 km/h (2 Bft) N-NO 22 0 min 0,0 UV-I 0 W/m 11,3 km/h (2 Bft)
09.04.2020 04:55 12,2 C 12,2 C 12,3 C 75 % 1023,3 hPa 0,0 l/m 4,8 km/h (1 Bft) N-NO 22 0 min 0,0 UV-I 0 W/m 8,0 km/h (2 Bft)
09.04.2020 04:50 12,3 C 12,3 C 12,3 C 75 % 1023,3 hPa 0,0 l/m 8,0 km/h (2 Bft) N-NO 22 0 min 0,0 UV-I 0 W/m 14,5 km/h (3 Bft)
09.04.2020 04:45 12,3 C 12,2 C 12,3 C 74 % 1023,3 hPa 0,0 l/m 6,4 km/h (2 Bft) N-NO 22 0 min 0,0 UV-I 0 W/m 11,3 km/h (2 Bft)
09.04.2020 04:40 12,2 C 12,2 C 12,3 C 74 % 1023,3 hPa 0,0 l/m 6,4 km/h (2 Bft) N-NO 22 0 min 0,0 UV-I 0 W/m 11,3 km/h (2 Bft)
09.04.2020 04:35 12,2 C 12,1 C 12,2 C 74 % 1023,3 hPa 0,0 l/m 6,4 km/h (2 Bft) N-NO 22 0 min 0,0 UV-I 0 W/m 11,3 km/h (2 Bft)
09.04.2020 04:30 12,1 C 12,0 C 12,1 C 74 % 1023,2 hPa 0,0 l/m 4,8 km/h (1 Bft) N-NO 22 0 min 0,0 UV-I 0 W/m 9,7 km/h (2 Bft)
09.04.2020 04:25 12,0 C 11,8 C 12,0 C 75 % 1023,3 hPa 0,0 l/m 4,8 km/h (1 Bft) N 360 0 min 0,0 UV-I 0 W/m 8,0 km/h (2 Bft)
09.04.2020 04:20 11,8 C 11,6 C 11,8 C 75 % 1023,3 hPa 0,0 l/m 4,8 km/h (1 Bft) N 360 0 min 0,0 UV-I 0 W/m 8,0 km/h (2 Bft)
09.04.2020 04:15 11,6 C 11,2 C 11,6 C 76 % 1023,2 hPa 0,0 l/m 3,2 km/h (1 Bft) N-NO 22 0 min 0,0 UV-I 0 W/m 6,4 km/h (2 Bft)
09.04.2020 04:10 11,2 C 11,1 C 11,2 C 77 % 1023,1 hPa 0,0 l/m 3,2 km/h (1 Bft) N-NO 22 0 min 0,0 UV-I 0 W/m 8,0 km/h (2 Bft)
09.04.2020 04:05 11,1 C 11,1 C 11,2 C 77 % 1023,1 hPa 0,0 l/m 0,0 km/h (0 Bft) N 0 0 min 0,0 UV-I 0 W/m 0,0 km/h (0 Bft)
09.04.2020 04:00 11,2 C 11,2 C 11,3 C 76 % 1023,0 hPa 0,0 l/m 0,0 km/h (0 Bft) N 0 0 min 0,0 UV-I 0 W/m 0,0 km/h (0 Bft)
09.04.2020 03:55 11,3 C 11,3 C 11,5 C 76 % 1023,0 hPa 0,0 l/m 0,0 km/h (0 Bft) N 0 0 min 0,0 UV-I 0 W/m 0,0 km/h (0 Bft)
09.04.2020 03:50 11,5 C 11,5 C 11,9 C 75 % 1023,0 hPa 0,0 l/m 0,0 km/h (0 Bft) N 0 0 min 0,0 UV-I 0 W/m 0,0 km/h (0 Bft)
09.04.2020 03:45 11,9 C 11,9 C 12,6 C 73 % 1023,1 hPa 0,0 l/m 0,0 km/h (0 Bft) N 0 0 min 0,0 UV-I 0 W/m 0,0 km/h (0 Bft)
09.04.2020 03:40 12,6 C 12,6 C 13,1 C 70 % 1023,1 hPa 0,0 l/m 0,0 km/h (0 Bft) N 0 0 min 0,0 UV-I 0 W/m 0,0 km/h (0 Bft)
09.04.2020 03:35 13,1 C 13,1 C 13,3 C 70 % 1022,9 hPa 0,0 l/m 0,0 km/h (0 Bft) N 0 0 min 0,0 UV-I 0 W/m 0,0 km/h (0 Bft)
09.04.2020 03:30 13,3 C 13,3 C 13,5 C 69 % 1022,9 hPa 0,0 l/m 0,0 km/h (0 Bft) N 0 0 min 0,0 UV-I 0 W/m 0,0 km/h (0 Bft)
09.04.2020 03:25 13,5 C 13,5 C 13,7 C 69 % 1022,9 hPa 0,0 l/m 0,0 km/h (0 Bft) N 0 0 min 0,0 UV-I 0 W/m 0,0 km/h (0 Bft)
09.04.2020 03:20 13,7 C 13,7 C 13,8 C 68 % 1022,9 hPa 0,0 l/m 1,6 km/h (1 Bft) N-NO 22 0 min 0,0 UV-I 0 W/m 3,2 km/h (1 Bft)
09.04.2020 03:15 13,7 C 13,7 C 13,8 C 67 % 1022,9 hPa 0,0 l/m 4,8 km/h (1 Bft) N-NO 22 0 min 0,0 UV-I 0 W/m 6,4 km/h (2 Bft)
09.04.2020 03:10 13,8 C 13,7 C 13,8 C 67 % 1022,9 hPa 0,0 l/m 4,8 km/h (1 Bft) N-NO 22 0 min 0,0 UV-I 0 W/m 6,4 km/h (2 Bft)
09.04.2020 03:05 13,8 C 13,8 C 14,1 C 68 % 1023,0 hPa 0,0 l/m 0,0 km/h (0 Bft) N 0 0 min 0,0 UV-I 0 W/m 0,0 km/h (0 Bft)
09.04.2020 03:00 14,1 C 14,1 C 14,2 C 67 % 1023,0 hPa 0,0 l/m 0,0 km/h (0 Bft) N 0 0 min 0,0 UV-I 0 W/m 0,0 km/h (0 Bft)
09.04.2020 02:55 14,2 C 14,2 C 14,2 C 66 % 1023,1 hPa 0,0 l/m 1,6 km/h (1 Bft) N 360 0 min 0,0 UV-I 0 W/m 3,2 km/h (1 Bft)
09.04.2020 02:50 14,2 C 14,1 C 14,2 C 65 % 1023,2 hPa 0,0 l/m 4,8 km/h (1 Bft) N 360 0 min 0,0 UV-I 0 W/m 6,4 km/h (2 Bft)
09.04.2020 02:45 14,1 C 14,1 C 14,2 C 65 % 1023,1 hPa 0,0 l/m 4,8 km/h (1 Bft) N 360 0 min 0,0 UV-I 0 W/m 6,4 km/h (2 Bft)
09.04.2020 02:40 14,1 C 14,1 C 14,1 C 65 % 1023,2 hPa 0,0 l/m 4,8 km/h (1 Bft) N 360 0 min 0,0 UV-I 0 W/m 6,4 km/h (2 Bft)
09.04.2020 02:35 14,1 C 14,1 C 14,2 C 65 % 1023,3 hPa 0,0 l/m 4,8 km/h (1 Bft) N 360 0 min 0,0 UV-I 0 W/m 6,4 km/h (2 Bft)
09.04.2020 02:30 14,2 C 14,1 C 14,2 C 66 % 1023,2 hPa 0,0 l/m 4,8 km/h (1 Bft) N-NO 22 0 min 0,0 UV-I 0 W/m 6,4 km/h (2 Bft)
09.04.2020 02:25 14,1 C 13,7 C 14,1 C 65 % 1023,3 hPa 0,0 l/m 4,8 km/h (1 Bft) N 360 0 min 0,0 UV-I 0 W/m 8,0 km/h (2 Bft)
09.04.2020 02:20 13,7 C 13,3 C 13,7 C 66 % 1023,3 hPa 0,0 l/m 1,6 km/h (1 Bft) N-NO 22 0 min 0,0 UV-I 0 W/m 6,4 km/h (2 Bft)
09.04.2020 02:15 13,3 C 13,1 C 13,3 C 68 % 1023,4 hPa 0,0 l/m 0,0 km/h (0 Bft) N 0 0 min 0,0 UV-I 0 W/m 0,0 km/h (0 Bft)
09.04.2020 02:10 13,2 C 13,1 C 13,2 C 70 % 1023,4 hPa 0,0 l/m 0,0 km/h (0 Bft) N 0 0 min 0,0 UV-I 0 W/m 0,0 km/h (0 Bft)
09.04.2020 02:05 13,1 C 13,1 C 13,1 C 70 % 1023,4 hPa 0,0 l/m 0,0 km/h (0 Bft) N 0 0 min 0,0 UV-I 0 W/m 0,0 km/h (0 Bft)
09.04.2020 02:00 13,1 C 13,1 C 13,1 C 71 % 1023,4 hPa 0,0 l/m 0,0 km/h (0 Bft) N 0 0 min 0,0 UV-I 0 W/m 0,0 km/h (0 Bft)
09.04.2020 01:55 13,1 C 13,1 C 13,2 C 71 % 1023,4 hPa 0,0 l/m 0,0 km/h (0 Bft) N 0 0 min 0,0 UV-I 0 W/m 0,0 km/h (0 Bft)
09.04.2020 01:50 13,2 C 13,2 C 13,3 C 71 % 1023,4 hPa 0,0 l/m 0,0 km/h (0 Bft) N 0 0 min 0,0 UV-I 0 W/m 0,0 km/h (0 Bft)
09.04.2020 01:45 13,3 C 13,3 C 13,3 C 70 % 1023,4 hPa 0,0 l/m 0,0 km/h (0 Bft) W-NW 292 0 min 0,0 UV-I 0 W/m 1,6 km/h (1 Bft)
09.04.2020 01:40 13,3 C 13,3 C 13,4 C 70 % 1023,4 hPa 0,0 l/m 0,0 km/h (0 Bft) W-NW 292 0 min 0,0 UV-I 0 W/m 1,6 km/h (1 Bft)
09.04.2020 01:35 13,3 C 13,3 C 13,4 C 69 % 1023,4 hPa 0,0 l/m 1,6 km/h (1 Bft) W-NW 292 0 min 0,0 UV-I 0 W/m 3,2 km/h (1 Bft)
09.04.2020 01:30 13,3 C 13,3 C 13,4 C 70 % 1023,4 hPa 0,0 l/m 1,6 km/h (1 Bft) W-NW 292 0 min 0,0 UV-I 0 W/m 3,2 km/h (1 Bft)
09.04.2020 01:25 13,3 C 13,2 C 13,3 C 70 % 1023,4 hPa 0,0 l/m 0,0 km/h (0 Bft) N 0 0 min 0,0 UV-I 0 W/m 0,0 km/h (0 Bft)
09.04.2020 01:20 13,1 C 13,1 C 13,2 C 69 % 1023,5 hPa 0,0 l/m 0,0 km/h (0 Bft) N 0 0 min 0,0 UV-I 0 W/m 0,0 km/h (0 Bft)
09.04.2020 01:15 13,1 C 13,0 C 13,1 C 70 % 1023,4 hPa 0,0 l/m 0,0 km/h (0 Bft) N 0 0 min 0,0 UV-I 0 W/m 0,0 km/h (0 Bft)
09.04.2020 01:10 13,1 C 13,1 C 13,2 C 69 % 1023,4 hPa 0,0 l/m 0,0 km/h (0 Bft) N 0 0 min 0,0 UV-I 0 W/m 0,0 km/h (0 Bft)
09.04.2020 01:05 13,2 C 13,2 C 13,3 C 69 % 1023,5 hPa 0,0 l/m 0,0 km/h (0 Bft) N 0 0 min 0,0 UV-I 0 W/m 0,0 km/h (0 Bft)
09.04.2020 01:00 13,3 C 13,3 C 13,4 C 69 % 1023,4 hPa 0,0 l/m 0,0 km/h (0 Bft) N 0 0 min 0,0 UV-I 0 W/m 0,0 km/h (0 Bft)
09.04.2020 00:55 13,4 C 13,4 C 13,6 C 68 % 1023,4 hPa 0,0 l/m 0,0 km/h (0 Bft) N-NO 22 0 min 0,0 UV-I 0 W/m 3,2 km/h (1 Bft)
09.04.2020 00:50 13,6 C 13,6 C 13,7 C 68 % 1023,4 hPa 0,0 l/m 0,0 km/h (0 Bft) N 0 0 min 0,0 UV-I 0 W/m 0,0 km/h (0 Bft)
09.04.2020 00:45 13,7 C 13,7 C 13,8 C 67 % 1023,4 hPa 0,0 l/m 0,0 km/h (0 Bft) N 0 0 min 0,0 UV-I 0 W/m 0,0 km/h (0 Bft)
09.04.2020 00:40 13,8 C 13,8 C 13,9 C 67 % 1023,4 hPa 0,0 l/m 0,0 km/h (0 Bft) N 0 0 min 0,0 UV-I 0 W/m 0,0 km/h (0 Bft)
09.04.2020 00:35 13,9 C 13,9 C 13,9 C 67 % 1023,5 hPa 0,0 l/m 0,0 km/h (0 Bft) N 0 0 min 0,0 UV-I 0 W/m 0,0 km/h (0 Bft)
09.04.2020 00:30 13,9 C 13,9 C 14,1 C 65 % 1023,4 hPa 0,0 l/m 0,0 km/h (0 Bft) N-NO 22 0 min 0,0 UV-I 0 W/m 3,2 km/h (1 Bft)
09.04.2020 00:25 14,1 C 14,1 C 14,2 C 67 % 1023,4 hPa 0,0 l/m 3,2 km/h (1 Bft) N-NO 22 0 min 0,0 UV-I 0 W/m 4,8 km/h (1 Bft)
09.04.2020 00:20 14,2 C 14,2 C 14,2 C 66 % 1023,4 hPa 0,0 l/m 1,6 km/h (1 Bft) N-NO 22 0 min 0,0 UV-I 0 W/m 4,8 km/h (1 Bft)
09.04.2020 00:15 14,2 C 14,2 C 14,3 C 65 % 1023,5 hPa 0,0 l/m 0,0 km/h (0 Bft) N 0 0 min 0,0 UV-I 0 W/m 0,0 km/h (0 Bft)
09.04.2020 00:10 14,3 C 14,3 C 14,4 C 65 % 1023,5 hPa 0,0 l/m 0,0 km/h (0 Bft) N-NO 22 0 min 0,0 UV-I 0 W/m 3,2 km/h (1 Bft)
09.04.2020 00:05 14,4 C 14,4 C 14,5 C 66 % 1023,4 hPa 0,0 l/m 0,0 km/h (0 Bft) N-NO 22 0 min 0,0 UV-I 0 W/m 4,8 km/h (1 Bft)
09.04.2020 00:00 14,4 C 14,4 C 14,6 C 64 % 1023,5 hPa 0,0 l/m 0,0 km/h (0 Bft) N 0 0 min 0,0 UV-I 0 W/m 0,0 km/h (0 Bft)
_ Min-Zeit 07:40 07:40 07:30 13:45 03:10 - 00:00 - - - - - 00:00
Minimum _ 10,6 C 10,6 C 10,7 C 44 % 1022,9 hPa - 0,0 km/h (0 Bft) - - - - - 0,0 km/h (0 Bft)
_ Max-Zeit 13:45 13:30 13:45 07:15 12:05 00:00 12:05 - - 08:45 12:10 12:35 12:50
Maximum _ 20,7 C 20,4 C 20,7 C 81 % 1025,9 hPa 0,0 l/m 12,9 km/h
NO (3 Bft)
- - 5 min 4,2 UV-I 710 W/m 22,5 km/h
NO (4 Bft)
Durchschnitt _ 14,2 C 14,1 C 14,3 C 67 % 1024,3 hPa #0,0 l/m 4,5 km/h (1 Bft) N-NO - #4:50 h 2,5 UV-I 354 W/m 8,5 km/h (2 Bft)